Forside
METAR-TAF:

METAR-TAF

Lufthavne :

Austin, Minnesota, USA

Breddekreds: 43-40N, længdekreds: 092-56W, højde: 375 m

Aktuelle vejr

Denne rapport blev lavet for 13 minutter siden, kl. 03:35 UTC
Vind 4 kt fra sydvest
Temperatur -17°C
Fugtighed 84%
Tryk 1023 hPa
Sigt: 16.1 km
skyfri

METAR: KAUM 110335Z AUTO 22004KT 10SM CLR M17/M19 A3022 RMK AO2

Tid: 21:48 (03:48 UTC)


TAF: fraværende

Vejrobservationer og prognoser fra mere end 4000 lufthavne (METAR og TAF).

De gule og røde prikker repræsenterer de meteorologiske stationer.

Flyt musen over at se navnet på stationen.

Så klik over at se vejr observationer og prognoser.

At skifte det kort: Klik på de grønne knapper med et sort kors for at zoome ind; på den grønne knap med en bindestreg for at zoome ud; eller på de grønne pile for tilstødende kort.


METAR-TAF: